Time;durP1;ratioP1;P1;durP2;ratioP2;P2;SDS_P1;SDS_P2;PMS_P1;PMS_P2;Temp;Humidity;BMP_temperature;BMP_pressure;BME280_temperature;BME280_humidity;BME280_pressure;Samples;Min_cycle;Max_cycle;Signal;HPM_P1;HPM_P2
2023/11/29 00:02:21;;;;;;;13.73;12.33;;;;;;;-0.32;90.25;99582.63;7387244;19;20369;-60
2023/11/29 00:04:47;;;;;;;14.05;11.50;;;;;;;-0.30;90.08;99582.47;7390689;19;20359;-58
2023/11/29 00:07:15;;;;;;;13.25;11.85;;;;;;;-0.22;90.21;99574.81;7391148;19;20361;-59
2023/11/29 00:09:42;;;;;;;13.23;11.82;;;;;;;-0.21;90.23;99560.84;7390903;19;20381;-58
2023/11/29 00:12:09;;;;;;;13.00;11.57;;;;;;;-0.17;90.19;99567.44;7389012;19;20360;-59
2023/11/29 00:14:36;;;;;;;12.68;11.38;;;;;;;-0.16;90.65;99553.44;7389645;19;20896;-60
2023/11/29 00:17:04;;;;;;;13.82;12.38;;;;;;;-0.16;90.96;99545.59;7389976;19;20773;-59
2023/11/29 00:19:37;;;;;;;13.68;12.27;;;;;;;-0.13;90.97;99550.53;7389844;19;20362;-57
2023/11/29 00:22:05;;;;;;;14.00;12.60;;;;;;;-0.14;90.88;99541.09;7389574;19;20875;-59
2023/11/29 00:24:32;;;;;;;14.38;12.90;;;;;;;-0.12;91.30;99528.75;7393444;19;20816;-59
2023/11/29 00:26:59;;;;;;;14.57;12.77;;;;;;;-0.10;91.19;99529.44;7396184;19;20389;-57
2023/11/29 00:29:26;;;;;;;13.98;12.57;;;;;;;-0.10;91.03;99521.63;7397266;19;20371;-58
2023/11/29 00:31:53;;;;;;;13.68;12.27;;;;;;;-0.12;90.72;99526.13;7395902;19;20384;-58
2023/11/29 00:34:20;;;;;;;13.07;11.77;;;;;;;-0.05;91.00;99524.63;7395738;19;20666;-58
2023/11/29 00:36:49;;;;;;;13.80;12.30;;;;;;;-0.08;91.26;99524.09;7397386;19;20360;-58
2023/11/29 00:39:15;;;;;;;13.75;12.35;;;;;;;-0.05;91.13;99519.41;7395174;19;20355;-59
2023/11/29 00:41:42;;;;;;;13.60;12.18;;;;;;;-0.04;91.13;99508.03;7395612;19;20368;-59
2023/11/29 00:44:09;;;;;;;13.40;12.00;;;;;;;-0.07;91.42;99516.13;7397556;19;20427;-58
2023/11/29 00:46:36;;;;;;;13.97;12.57;;;;;;;-0.07;91.40;99520.50;7397782;19;20365;-59
2023/11/29 00:49:03;;;;;;;14.45;12.95;;;;;;;-0.09;91.86;99497.19;7395881;19;20419;-60
2023/11/29 00:51:30;;;;;;;14.20;12.57;;;;;;;-0.05;92.08;99487.31;7392355;19;20919;-59
2023/11/29 00:53:57;;;;;;;13.73;12.32;;;;;;;-0.12;92.27;99489.66;7397630;19;20336;-57
2023/11/29 00:56:23;;;;;;;14.80;13.03;;;;;;;-0.12;92.23;99512.28;7393876;19;20364;-59
2023/11/29 00:58:50;;;;;;;14.98;13.40;;;;;;;-0.15;92.79;99491.69;7396555;19;20709;-59
2023/11/29 01:01:17;;;;;;;14.77;13.27;;;;;;;-0.10;93.59;99481.69;7396837;19;20360;-60
2023/11/29 01:03:44;;;;;;;15.25;13.40;;;;;;;-0.18;93.87;99466.72;7395467;19;20428;-58
2023/11/29 01:06:11;;;;;;;15.35;13.75;;;;;;;-0.14;94.02;99468.09;7392422;19;20517;-59
2023/11/29 01:08:38;;;;;;;14.98;13.38;;;;;;;-0.13;94.35;99467.13;7397014;19;20332;-59
2023/11/29 01:11:05;;;;;;;15.52;13.23;;;;;;;-0.14;94.34;99456.88;7394519;19;20368;-57
2023/11/29 01:13:32;;;;;;;15.02;13.43;;;;;;;-0.16;94.68;99459.59;7394962;19;20439;-59
2023/11/29 01:15:59;;;;;;;15.02;13.43;;;;;;;-0.24;95.78;99449.03;7394312;19;20359;-59
2023/11/29 01:18:27;;;;;;;15.30;13.70;;;;;;;-0.24;96.20;99451.63;7395174;19;20365;-60
2023/11/29 01:20:54;;;;;;;15.98;14.27;;;;;;;-0.27;96.62;99444.91;7395796;19;21017;-59
2023/11/29 01:23:21;;;;;;;15.77;14.18;;;;;;;-0.28;96.84;99458.88;7397068;19;20360;-59
2023/11/29 01:25:48;;;;;;;16.08;14.30;;;;;;;-0.33;97.45;99462.88;7397270;19;20372;-57
2023/11/29 01:28:15;;;;;;;15.80;14.20;;;;;;;-0.28;97.45;99456.28;7395526;19;20730;-60
2023/11/29 01:30:42;;;;;;;17.00;14.80;;;;;;;-0.28;97.64;99460.69;7392680;19;20372;-60
2023/11/29 01:33:08;;;;;;;15.27;13.68;;;;;;;-0.35;97.64;99444.78;7393776;19;20890;-58
2023/11/29 01:35:35;;;;;;;16.65;14.55;;;;;;;-0.32;97.57;99451.47;7396093;19;20345;-55
2023/11/29 01:38:02;;;;;;;15.43;13.80;;;;;;;-0.38;97.84;99441.59;7396568;19;20350;-57
2023/11/29 01:40:29;;;;;;;15.85;14.10;;;;;;;-0.39;97.84;99425.16;7396152;19;20350;-59
2023/11/29 01:42:56;;;;;;;15.73;14.13;;;;;;;-0.34;97.72;99446.44;7394806;19;20364;-58
2023/11/29 01:45:22;;;;;;;14.90;13.20;;;;;;;-0.41;97.61;99430.50;7396344;19;20419;-60
2023/11/29 01:47:49;;;;;;;14.98;13.48;;;;;;;-0.36;97.70;99421.44;7395806;19;20402;-60
2023/11/29 01:50:22;;;;;;;15.00;13.33;;;;;;;-0.38;98.03;99425.97;7392033;19;20364;-60
2023/11/29 01:52:49;;;;;;;15.80;14.10;;;;;;;-0.35;98.14;99423.91;7393310;19;20347;-58
2023/11/29 01:55:18;;;;;;;15.38;13.85;;;;;;;-0.32;98.09;99422.81;7394563;19;20349;-60
2023/11/29 01:57:47;;;;;;;16.75;13.80;;;;;;;-0.38;98.16;99431.19;7395544;19;20396;-59
2023/11/29 02:00:14;;;;;;;15.52;14.00;;;;;;;-0.36;98.35;99426.66;7395425;19;20561;-58
2023/11/29 02:02:42;;;;;;;15.48;13.98;;;;;;;-0.32;98.15;99420.22;7394570;19;20862;-57
2023/11/29 02:05:10;;;;;;;15.35;13.75;;;;;;;-0.33;97.97;99422.00;7393496;19;20360;-59
2023/11/29 02:07:38;;;;;;;15.55;13.90;;;;;;;-0.37;98.00;99412.81;7393735;19;20430;-60
2023/11/29 02:10:06;;;;;;;15.77;14.18;;;;;;;-0.31;97.96;99425.31;7392655;19;20372;-60
2023/11/29 02:12:33;;;;;;;16.00;14.30;;;;;;;-0.27;97.89;99407.63;7393997;19;20428;-59
2023/11/29 02:15:00;;;;;;;15.23;13.73;;;;;;;-0.26;97.91;99407.47;7393212;19;21204;-58
2023/11/29 02:17:27;;;;;;;16.35;14.27;;;;;;;-0.26;97.83;99398.81;7391466;19;20393;-60
2023/11/29 02:19:54;;;;;;;14.57;13.07;;;;;;;-0.26;97.55;99399.63;7392044;19;20364;-59
2023/11/29 02:22:23;;;;;;;15.77;14.18;;;;;;;-0.25;97.22;99403.09;7394094;19;20352;-60
2023/11/29 02:24:51;;;;;;;15.30;13.70;;;;;;;-0.25;97.27;99401.31;7393540;19;20910;-60
2023/11/29 02:27:18;;;;;;;15.73;13.40;;;;;;;-0.26;96.94;99404.03;7390913;19;20369;-59
2023/11/29 02:29:45;;;;;;;15.03;13.43;;;;;;;-0.27;96.41;99384.97;7391926;19;20421;-58
2023/11/29 02:32:11;;;;;;;13.95;12.50;;;;;;;-0.26;96.06;99402.25;7390728;19;20448;-60
2023/11/29 02:34:38;;;;;;;14.13;12.73;;;;;;;-0.21;95.58;99389.66;7392610;19;20369;-58
2023/11/29 02:37:05;;;;;;;14.75;13.23;;;;;;;-0.17;95.50;99387.59;7390746;19;20376;-60
2023/11/29 02:39:32;;;;;;;14.68;13.10;;;;;;;-0.18;95.48;99398.97;7390846;19;20716;-60
2023/11/29 02:41:59;;;;;;;14.02;12.63;;;;;;;-0.15;95.08;99390.03;7392825;19;20376;-59
2023/11/29 02:44:25;;;;;;;14.30;12.90;;;;;;;-0.19;94.94;99386.91;7392938;19;20364;-60
2023/11/29 02:46:52;;;;;;;14.43;12.93;;;;;;;-0.13;95.10;99396.75;7389523;19;20698;-59
2023/11/29 02:49:19;;;;;;;14.23;12.80;;;;;;;-0.11;95.06;99379.19;7393273;19;20347;-58
2023/11/29 02:51:46;;;;;;;13.35;12.05;;;;;;;-0.13;95.18;99383.72;7390786;19;20356;-59
2023/11/29 02:54:13;;;;;;;13.50;12.20;;;;;;;-0.10;95.09;99391.28;7392362;19;20364;-59
2023/11/29 02:56:40;;;;;;;14.32;12.82;;;;;;;-0.08;94.89;99378.13;7391194;19;20730;-59
2023/11/29 02:59:07;;;;;;;14.13;12.63;;;;;;;-0.11;94.85;99373.97;7389659;19;20447;-58
2023/11/29 03:01:34;;;;;;;14.70;13.20;;;;;;;-0.05;95.14;99368.22;7392723;19;21064;-59
2023/11/29 03:04:02;;;;;;;13.68;12.27;;;;;;;-0.06;95.12;99371.81;7389600;19;20373;-59
2023/11/29 03:06:29;;;;;;;14.27;12.77;;;;;;;-0.04;94.82;99362.06;7392794;19;20349;-60
2023/11/29 03:08:55;;;;;;;13.80;12.27;;;;;;;-0.04;95.14;99366.47;7390777;19;20701;-61
2023/11/29 03:11:22;;;;;;;13.60;12.20;;;;;;;-0.07;94.94;99356.28;7390422;19;20360;-58
2023/11/29 03:13:49;;;;;;;13.88;12.48;;;;;;;-0.05;95.10;99349.16;7392470;19;20377;-60
2023/11/29 03:16:16;;;;;;;13.80;12.40;;;;;;;-0.03;95.04;99361.06;7392406;19;20666;-59
2023/11/29 03:18:43;;;;;;;13.48;12.15;;;;;;;-0.06;95.12;99356.16;7390526;19;20356;-59
2023/11/29 03:21:09;;;;;;;13.10;11.80;;;;;;;-0.09;95.47;99351.22;7389449;19;20883;-60
2023/11/29 03:23:36;;;;;;;13.43;12.07;;;;;;;-0.05;95.31;99352.56;7390241;19;20426;-58
2023/11/29 03:26:04;;;;;;;13.70;12.30;;;;;;;-0.06;95.39;99345.72;7388326;19;20368;-60
2023/11/29 03:28:31;;;;;;;12.85;11.55;;;;;;;-0.04;95.42;99338.59;7392372;19;20336;-59
2023/11/29 03:30:58;;;;;;;13.88;12.45;;;;;;;-0.04;95.65;99330.78;7388438;19;20393;-60
2023/11/29 03:33:24;;;;;;;12.57;11.38;;;;;;;-0.05;95.49;99329.13;7392306;19;20522;-60
2023/11/29 03:35:51;;;;;;;13.07;11.77;;;;;;;-0.08;95.35;99326.81;7392033;19;20684;-59
2023/11/29 03:38:20;;;;;;;13.05;11.68;;;;;;;-0.01;95.77;99330.47;7389718;19;20883;-59
2023/11/29 03:40:47;;;;;;;12.63;11.38;;;;;;;0.02;95.59;99333.75;7388263;19;20375;-59
2023/11/29 03:43:13;;;;;;;12.77;11.43;;;;;;;0.02;95.56;99336.38;7392036;19;20776;-59
2023/11/29 03:45:40;;;;;;;12.85;11.57;;;;;;;0.01;95.85;99317.31;7391947;19;20352;-59
2023/11/29 03:48:07;;;;;;;12.98;11.57;;;;;;;0.02;95.78;99318.13;7389808;19;20860;-59
2023/11/29 03:50:34;;;;;;;13.05;11.75;;;;;;;0.07;95.59;99316.75;7390271;19;20444;-59
2023/11/29 03:53:01;;;;;;;13.27;11.88;;;;;;;0.07;95.89;99306.31;7388146;19;20383;-60
2023/11/29 03:55:28;;;;;;;12.68;11.38;;;;;;;0.08;95.95;99307.13;7390881;19;20376;-60
2023/11/29 03:57:54;;;;;;;12.80;11.50;;;;;;;0.11;96.00;99306.88;7388068;19;20430;-59
2023/11/29 04:00:23;;;;;;;12.07;10.88;;;;;;;0.07;95.98;99295.88;7397242;19;20641;-60
2023/11/29 04:02:49;;;;;;;11.85;10.65;;;;;;;0.11;96.52;99296.44;7397863;19;20855;-59
2023/11/29 04:05:16;;;;;;;13.00;11.70;;;;;;;0.12;96.43;99295.47;7396603;19;20701;-58
2023/11/29 04:07:43;;;;;;;13.57;12.13;;;;;;;0.14;96.86;99286.53;7399009;19;20423;-58
2023/11/29 04:10:10;;;;;;;13.05;11.75;;;;;;;0.11;96.90;99284.22;7398037;19;20720;-60
2023/11/29 04:12:39;;;;;;;13.10;11.80;;;;;;;0.14;96.93;99283.09;7393545;19;20376;-58
2023/11/29 04:15:06;;;;;;;12.60;11.40;;;;;;;0.14;97.34;99280.50;7394715;19;20340;-60
2023/11/29 04:17:33;;;;;;;13.80;12.40;;;;;;;0.18;97.35;99266.22;7398905;19;20855;-59
2023/11/29 04:20:01;;;;;;;12.88;11.60;;;;;;;0.19;97.50;99263.47;7394839;19;20340;-60
2023/11/29 04:22:28;;;;;;;12.80;11.20;;;;;;;0.15;97.65;99258.66;7396478;19;20424;-59
2023/11/29 04:24:54;;;;;;;12.30;11.02;;;;;;;0.15;97.93;99261.25;7395494;19;20871;-60
2023/11/29 04:27:21;;;;;;;12.13;10.82;;;;;;;0.15;97.91;99250.84;7398066;19;20719;-61
2023/11/29 04:29:48;;;;;;;11.20;10.10;;;;;;;0.11;97.73;99257.31;7395930;19;20348;-58
2023/11/29 04:32:15;;;;;;;12.50;11.20;;;;;;;0.16;97.95;99244.66;7394261;19;20842;-59
2023/11/29 04:34:42;;;;;;;12.45;11.25;;;;;;;0.14;98.01;99241.38;7394626;19;20385;-60
2023/11/29 04:37:19;;;;;;;12.80;11.50;;;;;;;0.12;98.67;99238.91;7396262;19;20676;-59
2023/11/29 04:39:46;;;;;;;13.13;11.82;;;;;;;0.12;98.91;99228.47;7395397;19;20500;-60
2023/11/29 04:42:12;;;;;;;14.50;13.00;;;;;;;0.12;99.15;99227.66;7394183;19;20376;-59
2023/11/29 04:44:39;;;;;;;13.73;12.32;;;;;;;0.14;99.27;99220.53;7396604;19;20851;-60
2023/11/29 04:47:06;;;;;;;13.77;12.30;;;;;;;0.08;99.59;99221.91;7396590;19;20379;-60
2023/11/29 04:49:33;;;;;;;13.63;12.23;;;;;;;0.11;99.29;99211.22;7395317;19;20393;-60
2023/11/29 04:52:00;;;;;;;15.48;13.88;;;;;;;0.11;99.26;99220.81;7395344;19;20391;-59
2023/11/29 04:54:26;;;;;;;13.93;12.52;;;;;;;0.08;99.29;99211.47;7395900;19;20368;-60
2023/11/29 04:56:53;;;;;;;14.77;13.18;;;;;;;0.10;99.60;99227.00;7395636;19;20364;-58
2023/11/29 04:59:20;;;;;;;13.32;12.02;;;;;;;0.09;99.57;99220.16;7394695;19;20698;-61
2023/11/29 05:01:47;;;;;;;14.87;13.37;;;;;;;0.12;99.68;99209.41;7396077;19;20706;-61
2023/11/29 05:04:14;;;;;;;14.13;12.63;;;;;;;0.10;99.80;99203.53;7396640;19;20356;-57
2023/11/29 05:06:41;;;;;;;15.20;13.57;;;;;;;0.13;99.82;99211.88;7393715;19;20564;-60
2023/11/29 05:09:08;;;;;;;16.30;14.68;;;;;;;0.18;99.91;99203.63;7395974;19;20352;-60
2023/11/29 05:11:34;;;;;;;16.02;14.25;;;;;;;0.20;99.60;99204.31;7392247;19;20361;-59
2023/11/29 05:14:02;;;;;;;16.58;14.52;;;;;;;0.23;99.71;99209.22;7397306;19;20424;-60
2023/11/29 05:16:29;;;;;;;15.02;13.52;;;;;;;0.21;99.72;99190.28;7396893;19;20408;-59
2023/11/29 05:18:57;;;;;;;15.57;13.73;;;;;;;0.26;99.68;99193.28;7396608;19;20424;-60
2023/11/29 05:21:26;;;;;;;15.82;14.13;;;;;;;0.23;99.37;99180.53;7395928;19;20348;-61
2023/11/29 05:23:52;;;;;;;16.40;13.65;;;;;;;0.23;99.52;99183.13;7395920;19;20356;-61
2023/11/29 05:26:19;;;;;;;16.15;14.43;;;;;;;0.26;99.84;99166.41;7394316;19;20393;-61
2023/11/29 05:28:46;;;;;;;17.85;14.60;;;;;;;0.25;99.84;99169.97;7394139;19;20360;-60
2023/11/29 05:31:13;;;;;;;16.67;14.87;;;;;;;0.25;99.99;99170.78;7391614;19;21286;-59
2023/11/29 05:33:40;;;;;;;15.40;13.77;;;;;;;0.31;100.00;99158.94;7393156;19;20458;-61
2023/11/29 05:36:07;;;;;;;16.10;14.40;;;;;;;0.33;99.55;99159.63;7396938;19;20337;-60
2023/11/29 05:38:34;;;;;;;15.65;13.82;;;;;;;0.33;99.64;99167.44;7396097;19;20923;-59
2023/11/29 05:41:00;;;;;;;15.13;13.23;;;;;;;0.29;99.08;99151.25;7395639;19;20435;-60
2023/11/29 05:43:27;;;;;;;16.92;14.30;;;;;;;0.33;99.19;99151.78;7396617;19;20424;-60
2023/11/29 05:45:54;;;;;;;14.38;12.88;;;;;;;0.35;99.21;99147.25;7395919;19;20718;-60
2023/11/29 05:48:21;;;;;;;14.07;12.65;;;;;;;0.36;98.76;99151.47;7392771;19;20384;-60
2023/11/29 05:50:48;;;;;;;14.20;12.45;;;;;;;0.37;98.74;99148.75;7394642;19;20871;-61
2023/11/29 05:53:17;;;;;;;14.27;12.30;;;;;;;0.36;98.22;99157.53;7390217;19;20701;-60
2023/11/29 05:55:44;;;;;;;12.73;11.38;;;;;;;0.40;97.77;99148.47;7396622;19;20360;-59
2023/11/29 05:58:11;;;;;;;13.90;11.70;;;;;;;0.46;97.67;99146.22;7397977;19;20375;-58
2023/11/29 06:00:38;;;;;;;12.73;11.07;;;;;;;0.50;97.20;99137.94;7396960;19;20438;-60
2023/11/29 06:03:06;;;;;;;12.82;11.20;;;;;;;0.55;97.28;99138.34;7395542;19;20365;-59
2023/11/29 06:05:34;;;;;;;12.70;10.60;;;;;;;0.55;97.01;99140.94;7396661;19;20983;-60
2023/11/29 06:08:01;;;;;;;15.13;12.43;;;;;;;0.61;96.77;99137.72;7395043;19;20707;-62
2023/11/29 06:10:28;;;;;;;13.25;11.13;;;;;;;0.65;96.79;99138.25;7396763;19;20369;-59
2023/11/29 06:12:54;;;;;;;12.15;10.70;;;;;;;0.73;96.78;99143.53;7393195;19;20880;-63
2023/11/29 06:15:21;;;;;;;12.50;10.65;;;;;;;0.71;96.50;99145.47;7396790;19;20360;-63
2023/11/29 06:17:48;;;;;;;11.65;10.45;;;;;;;0.77;96.22;99136.22;7397420;19;20360;-63
2023/11/29 06:20:21;;;;;;;10.83;9.47;;;;;;;0.79;96.06;99137.72;7395366;19;20458;-63
2023/11/29 06:22:49;;;;;;;11.30;10.10;;;;;;;0.81;95.92;99135.78;7391550;19;20874;-64
2023/11/29 06:25:16;;;;;;;12.55;10.02;;;;;;;0.85;96.06;99132.84;7396557;19;20692;-64
2023/11/29 06:27:45;;;;;;;11.80;9.65;;;;;;;0.83;96.03;99138.25;7394646;19;20393;-64
2023/11/29 06:30:13;;;;;;;10.68;9.25;;;;;;;0.86;95.81;99131.91;7395846;19;20437;-64
2023/11/29 06:32:41;;;;;;;13.80;10.30;;;;;;;0.88;96.44;99127.34;7394899;19;20348;-64
2023/11/29 06:35:12;;;;;;;11.30;10.10;;;;;;;0.88;95.99;99122.94;7394645;19;20367;-65
2023/11/29 06:37:40;;;;;;;11.23;10.02;;;;;;;0.88;96.63;99128.16;7394104;19;20368;-64
2023/11/29 06:40:10;;;;;;;12.45;10.00;;;;;;;0.88;96.47;99124.75;7395589;19;20714;-64
2023/11/29 06:42:42;;;;;;;13.40;10.30;;;;;;;0.90;96.28;99120.19;7392955;19;20340;-64
2023/11/29 06:45:10;;;;;;;12.30;9.90;;;;;;;0.88;96.19;99119.50;7394480;19;20340;-64
2023/11/29 06:47:38;;;;;;;11.48;10.05;;;;;;;0.92;95.99;99123.47;7395745;19;20353;-64
2023/11/29 06:50:05;;;;;;;10.53;9.43;;;;;;;0.90;95.54;99122.78;7395369;19;20352;-64
2023/11/29 06:52:32;;;;;;;10.15;9.07;;;;;;;0.90;95.51;99112.34;7394212;19;20363;-65
2023/11/29 06:54:59;;;;;;;11.05;9.70;;;;;;;0.90;95.46;99109.75;7395020;19;20361;-64
2023/11/29 06:57:26;;;;;;;11.05;9.48;;;;;;;0.89;95.67;99111.50;7394896;19;20908;-64
2023/11/29 06:59:53;;;;;;;10.82;9.30;;;;;;;0.95;95.59;99116.13;7393971;19;20352;-64
2023/11/29 07:02:20;;;;;;;10.18;8.98;;;;;;;0.93;95.46;99118.06;7393210;19;20910;-64
2023/11/29 07:04:48;;;;;;;10.55;9.45;;;;;;;0.97;95.80;99115.97;7394492;19;20686;-64
2023/11/29 07:07:16;;;;;;;10.23;9.23;;;;;;;0.99;95.53;99116.66;7393337;19;20344;-64
2023/11/29 07:09:43;;;;;;;10.27;9.18;;;;;;;1.02;95.83;99122.41;7394327;19;20385;-64
2023/11/29 07:12:12;;;;;;;11.50;8.73;;;;;;;1.01;95.79;99119.94;7393605;19;20856;-64
2023/11/29 07:14:39;;;;;;;10.33;8.87;;;;;;;1.04;95.79;99127.44;7393467;19;20380;-64
2023/11/29 07:17:06;;;;;;;10.00;8.82;;;;;;;1.00;96.11;99128.75;7393024;19;20705;-64
2023/11/29 07:19:33;;;;;;;10.50;9.48;;;;;;;1.00;96.38;99126.13;7392828;19;20349;-64
2023/11/29 07:22:00;;;;;;;11.80;9.77;;;;;;;0.98;96.13;99141.13;7394934;19;20358;-64
2023/11/29 07:24:27;;;;;;;11.48;10.27;;;;;;;1.02;96.34;99126.81;7393912;19;20361;-64
2023/11/29 07:26:54;;;;;;;10.32;9.23;;;;;;;1.06;95.98;99122.09;7393535;19;20436;-64
2023/11/29 07:29:21;;;;;;;10.13;9.13;;;;;;;1.08;95.59;99126.16;7390685;19;20412;-64
2023/11/29 07:31:48;;;;;;;10.65;9.35;;;;;;;1.10;95.61;99119.00;7394151;19;20368;-64
2023/11/29 07:34:15;;;;;;;11.10;9.40;;;;;;;1.14;95.71;99115.13;7391061;19;20352;-64
2023/11/29 07:36:49;;;;;;;9.82;8.80;;;;;;;1.11;95.75;99118.06;7392288;19;20364;-64
2023/11/29 07:39:16;;;;;;;10.50;8.88;;;;;;;1.17;95.90;99114.84;7393670;19;20352;-65
2023/11/29 07:41:42;;;;;;;10.27;9.20;;;;;;;1.15;96.09;99105.50;7393712;19;20356;-64
2023/11/29 07:44:09;;;;;;;10.43;8.95;;;;;;;1.18;95.89;99121.69;7394741;19;20341;-64
2023/11/29 07:46:36;;;;;;;10.10;9.10;;;;;;;1.25;96.04;99121.88;7393817;19;20353;-65
2023/11/29 07:49:03;;;;;;;10.27;9.18;;;;;;;1.28;95.68;99115.56;7392809;19;20714;-64
2023/11/29 07:51:30;;;;;;;10.57;9.18;;;;;;;1.24;95.36;99112.41;7392747;19;20406;-64
2023/11/29 07:53:57;;;;;;;10.10;9.10;;;;;;;1.26;95.64;99110.47;7390159;19;20345;-64
2023/11/29 07:56:24;;;;;;;9.47;8.47;;;;;;;1.30;95.27;99111.81;7392664;19;20428;-65
2023/11/29 07:58:50;;;;;;;9.95;8.40;;;;;;;1.32;95.43;99122.94;7392588;19;20433;-65
2023/11/29 08:01:17;;;;;;;9.77;8.77;;;;;;;1.38;95.24;99119.69;7391706;19;20419;-65
2023/11/29 08:03:44;;;;;;;9.23;8.43;;;;;;;1.34;95.39;99125.34;7388229;19;20969;-66
2023/11/29 08:06:11;;;;;;;9.38;8.38;;;;;;;1.36;95.33;99118.19;7389948;19;20336;-65
2023/11/29 08:08:38;;;;;;;9.77;8.45;;;;;;;1.35;95.74;99121.78;7390941;19;20364;-66
2023/11/29 08:11:05;;;;;;;9.07;8.18;;;;;;;1.37;95.62;99120.66;7391610;19;20393;-65
2023/11/29 08:13:32;;;;;;;9.48;8.52;;;;;;;1.34;96.02;99114.91;7390361;19;20377;-65
2023/11/29 08:15:59;;;;;;;9.00;8.10;;;;;;;1.36;95.84;99118.19;7393845;19;20345;-65
2023/11/29 08:18:26;;;;;;;9.00;8.10;;;;;;;1.34;95.43;99114.91;7392363;19;20943;-65
2023/11/29 08:20:53;;;;;;;9.38;8.48;;;;;;;1.36;95.71;99107.75;7392284;19;20365;-65
2023/11/29 08:23:20;;;;;;;9.55;8.65;;;;;;;1.35;95.38;99113.94;7392093;19;20911;-65
2023/11/29 08:25:47;;;;;;;10.55;9.25;;;;;;;1.37;95.03;99106.78;7391358;19;20336;-65
2023/11/29 08:28:14;;;;;;;8.63;7.82;;;;;;;1.41;94.59;99110.72;7391914;19;20416;-65
2023/11/29 08:30:41;;;;;;;9.73;8.73;;;;;;;1.42;94.31;99112.34;7388175;19;20444;-65
2023/11/29 08:33:08;;;;;;;10.02;8.43;;;;;;;1.46;94.50;99108.44;7388680;19;21071;-65
2023/11/29 08:35:37;;;;;;;9.40;8.20;;;;;;;1.46;93.87;99121.50;7391394;19;20368;-64
2023/11/29 08:38:04;;;;;;;10.27;8.67;;;;;;;1.51;93.77;99105.38;7391874;19;20443;-64
2023/11/29 08:40:31;;;;;;;9.75;8.75;;;;;;;1.57;93.84;99116.03;7391039;19;20403;-65
2023/11/29 08:42:58;;;;;;;9.18;8.20;;;;;;;1.58;93.46;99104.59;7389509;19;20440;-64
2023/11/29 08:45:28;;;;;;;9.73;8.73;;;;;;;1.66;93.53;99119.50;7390749;19;20887;-64
2023/11/29 08:47:55;;;;;;;9.23;8.32;;;;;;;1.68;92.50;99117.56;7395574;19;20343;-64
2023/11/29 08:50:24;;;;;;;9.95;8.80;;;;;;;1.82;92.75;99118.75;7399230;19;20380;-64
2023/11/29 08:52:51;;;;;;;9.48;8.50;;;;;;;1.84;91.97;99117.59;7395195;19;20718;-64
2023/11/29 08:55:18;;;;;;;9.57;8.55;;;;;;;1.89;91.85;99119.78;7398533;19;20384;-64
2023/11/29 08:57:45;;;;;;;9.35;8.30;;;;;;;1.99;91.55;99117.00;7398464;19;20373;-65
2023/11/29 09:00:12;;;;;;;9.27;8.32;;;;;;;2.06;91.16;99109.34;7398328;19;20364;-65
2023/11/29 09:02:39;;;;;;;9.20;8.30;;;;;;;2.07;90.42;99108.38;7391042;19;20361;-65
2023/11/29 09:05:07;;;;;;;9.20;8.30;;;;;;;2.03;90.65;99108.69;7386278;19;20711;-65
2023/11/29 09:07:36;;;;;;;9.45;8.43;;;;;;;2.06;90.67;99114.56;7396328;19;20906;-65
2023/11/29 09:10:05;;;;;;;9.07;8.18;;;;;;;1.99;90.44;99112.59;7395643;19;20436;-66
2023/11/29 09:12:32;;;;;;;10.57;8.33;;;;;;;2.00;90.36;99109.03;7397486;19;20356;-66
2023/11/29 09:14:59;;;;;;;9.18;8.27;;;;;;;2.01;90.83;99107.22;7397850;19;20428;-65
2023/11/29 09:17:26;;;;;;;9.00;8.10;;;;;;;1.97;90.84;99101.47;7396857;19;20683;-65
2023/11/29 09:19:54;;;;;;;9.23;8.25;;;;;;;1.89;90.89;99104.09;7393878;19;20344;-65
2023/11/29 09:22:23;;;;;;;9.10;8.10;;;;;;;1.87;90.87;99105.19;7396779;19;20361;-66
2023/11/29 09:24:52;;;;;;;8.77;7.88;;;;;;;1.79;90.97;99109.44;7397871;19;20416;-65
2023/11/29 09:27:19;;;;;;;8.80;7.90;;;;;;;1.83;91.38;99096.88;7396755;19;20376;-65
2023/11/29 09:29:46;;;;;;;9.57;8.57;;;;;;;1.84;91.43;99088.84;7394435;19;20377;-65
2023/11/29 09:32:13;;;;;;;9.00;8.10;;;;;;;1.81;91.19;99093.59;7397109;19;20451;-65
2023/11/29 09:34:39;;;;;;;8.88;7.97;;;;;;;1.84;91.25;99088.03;7393031;19;20424;-65
2023/11/29 09:37:06;;;;;;;8.80;7.70;;;;;;;1.94;91.34;99086.13;7395836;19;20680;-65
2023/11/29 09:39:33;;;;;;;9.30;8.30;;;;;;;1.96;91.25;99078.13;7395619;19;20492;-65
2023/11/29 09:42:03;;;;;;;9.90;8.90;;;;;;;2.04;91.36;99081.56;7396833;19;20360;-66
2023/11/29 09:44:35;;;;;;;9.75;8.77;;;;;;;2.07;91.51;99090.88;7393280;19;20451;-66
2023/11/29 09:47:03;;;;;;;9.60;8.60;;;;;;;2.04;91.48;99078.97;7394636;19;20482;-65
2023/11/29 09:49:31;;;;;;;9.00;8.10;;;;;;;2.07;91.17;99087.47;7395648;19;20336;-65
2023/11/29 09:51:58;;;;;;;8.98;8.07;;;;;;;2.15;90.87;99077.84;7397696;19;20367;-65
2023/11/29 09:54:25;;;;;;;9.60;8.60;;;;;;;2.24;91.00;99070.81;7393964;19;20386;-65
2023/11/29 09:56:52;;;;;;;10.50;9.02;;;;;;;2.19;91.30;99080.94;7393270;19;20363;-65
2023/11/29 09:59:21;;;;;;;10.27;9.23;;;;;;;2.08;92.05;99070.78;7393801;19;20357;-64
2023/11/29 10:01:49;;;;;;;11.02;9.65;;;;;;;2.04;92.23;99078.97;7391341;19;20349;-63
2023/11/29 10:04:18;;;;;;;10.65;9.55;;;;;;;1.96;93.05;99084.16;7392030;19;20361;-62
2023/11/29 10:06:44;;;;;;;10.95;9.85;;;;;;;1.91;93.46;99070.72;7395317;19;20681;-61
2023/11/29 10:09:12;;;;;;;11.77;10.57;;;;;;;1.82;93.82;99079.53;7394922;19;20871;-63
2023/11/29 10:11:41;;;;;;;11.75;10.65;;;;;;;1.82;93.92;99071.69;7390683;19;20389;-63
2023/11/29 10:14:08;;;;;;;12.55;10.80;;;;;;;1.82;94.44;99066.47;7390990;19;20416;-63
2023/11/29 10:16:34;;;;;;;12.30;11.00;;;;;;;1.86;94.73;99067.78;7393762;19;20396;-63
2023/11/29 10:19:03;;;;;;;13.15;11.43;;;;;;;1.86;94.69;99073.00;7394955;19;20458;-63
2023/11/29 10:21:30;;;;;;;12.13;10.93;;;;;;;1.90;94.64;99066.50;7395598;19;20661;-63
2023/11/29 10:23:57;;;;;;;12.40;11.13;;;;;;;1.89;94.53;99062.25;7392088;19;20871;-63
2023/11/29 10:26:27;;;;;;;14.77;13.10;;;;;;;1.96;95.09;99062.44;7392301;19;20415;-65
2023/11/29 10:28:54;;;;;;;12.43;10.75;;;;;;;2.00;94.79;99059.31;7391550;19;20369;-63
2023/11/29 10:31:22;;;;;;;11.17;10.03;;;;;;;2.00;94.75;99058.53;7394830;19;20339;-63
2023/11/29 10:33:49;;;;;;;11.30;9.85;;;;;;;1.94;94.91;99062.56;7391774;19;21270;-63
2023/11/29 10:36:20;;;;;;;11.68;10.45;;;;;;;1.95;95.37;99058.16;7394634;19;20353;-64
2023/11/29 10:38:56;;;;;;;12.75;11.45;;;;;;;1.96;95.60;99051.97;7392675;19;20348;-64
2023/11/29 10:41:25;;;;;;;11.23;10.18;;;;;;;1.88;95.77;99055.38;7391887;19;20370;-63
2023/11/29 10:43:54;;;;;;;12.27;10.97;;;;;;;1.87;96.24;99048.50;7390135;19;20369;-63
2023/11/29 10:46:25;;;;;;;13.40;12.02;;;;;;;1.91;96.33;99055.03;7393004;19;20362;-64
2023/11/29 10:49:02;;;;;;;11.40;10.20;;;;;;;1.82;96.59;99061.22;7387753;19;20677;-64
2023/11/29 10:51:30;;;;;;;11.60;10.50;;;;;;;1.79;96.78;99057.16;7391577;19;20369;-63
2023/11/29 10:53:58;;;;;;;11.55;10.27;;;;;;;1.77;96.92;99050.44;7390049;19;20369;-63
2023/11/29 10:56:26;;;;;;;11.90;10.70;;;;;;;1.77;97.48;99047.81;7389118;19;20356;-64
2023/11/29 10:59:17;;;;;;;11.45;10.30;;;;;;;1.66;98.02;99050.72;7394028;19;20340;-63
2023/11/29 11:01:45;;;;;;;11.98;10.70;;;;;;;1.74;98.08;99053.34;7392838;19;20360;-64
2023/11/29 11:04:12;;;;;;;11.70;10.60;;;;;;;1.71;98.49;99045.84;7393085;19;20364;-64
2023/11/29 11:06:40;;;;;;;11.02;9.93;;;;;;;1.66;98.51;99046.31;7392270;19;20393;-65
2023/11/29 11:09:36;;;;;;;10.95;9.85;;;;;;;1.58;98.86;99038.44;7389847;19;20389;-64
2023/11/29 11:12:06;;;;;;;12.27;10.63;;;;;;;1.56;99.11;99036.00;7393293;19;20385;-65
2023/11/29 11:14:48;;;;;;;12.32;11.13;;;;;;;1.49;99.80;99037.59;7391353;19;20425;-65
2023/11/29 11:17:22;;;;;;;12.18;10.93;;;;;;;1.46;99.87;99039.69;7394643;19;20885;-65
2023/11/29 11:19:50;;;;;;;11.35;10.15;;;;;;;1.42;99.95;99040.03;7392759;19;20364;-64
2023/11/29 11:22:23;;;;;;;11.63;10.52;;;;;;;1.40;100.00;99043.75;7393464;19;20358;-64
2023/11/29 11:25:01;;;;;;;11.57;10.38;;;;;;;1.34;100.00;99041.75;7391214;19;20348;-64
2023/11/29 11:27:33;;;;;;;11.38;10.27;;;;;;;1.37;100.00;99031.00;7391157;19;20775;-64
2023/11/29 11:30:18;;;;;;;11.73;10.52;;;;;;;1.34;100.00;99031.31;7393933;19;20377;-65